createdAt,value
2017-11-19T00:01:00.444Z,97788.75
2017-11-19T00:03:28.748Z,97787.95
2017-11-19T00:05:57.066Z,97785.80
2017-11-19T00:08:26.118Z,97790.55
2017-11-19T00:10:54.416Z,97783.72
2017-11-19T00:13:22.720Z,97774.06
2017-11-19T00:15:51.002Z,97773.59
2017-11-19T00:18:19.294Z,97764.77
2017-11-19T00:20:47.612Z,97748.20
2017-11-19T00:23:15.928Z,97747.97
2017-11-19T00:25:44.232Z,97750.17
2017-11-19T00:28:12.514Z,97762.77
2017-11-19T00:30:40.801Z,97752.28
2017-11-19T00:33:09.089Z,97755.53
2017-11-19T00:35:37.376Z,97753.78
2017-11-19T00:38:05.681Z,97750.81
2017-11-19T00:40:34.739Z,97750.59
2017-11-19T00:43:03.039Z,97750.02
2017-11-19T00:45:31.325Z,97732.69
2017-11-19T00:47:59.620Z,97717.92
2017-11-19T00:50:28.675Z,97721.42
2017-11-19T00:52:56.962Z,97747.73
2017-11-19T00:55:25.255Z,97740.52
2017-11-19T00:57:54.311Z,97751.02
2017-11-19T01:00:22.618Z,97736.40
2017-11-19T01:02:51.720Z,97730.58
2017-11-19T01:05:23.877Z,97726.14
2017-11-19T01:07:52.954Z,97725.67
2017-11-19T01:10:21.846Z,97725.28
2017-11-19T01:12:50.126Z,97731.88
2017-11-19T01:15:18.414Z,97740.09
2017-11-19T01:17:47.486Z,97735.78
2017-11-19T01:20:17.409Z,97728.30
2017-11-19T01:22:45.719Z,97725.84
2017-11-19T01:25:14.016Z,97727.06
2017-11-19T01:27:42.299Z,97711.02
2017-11-19T01:30:11.352Z,97704.75
2017-11-19T01:32:40.402Z,97702.72
2017-11-19T01:35:08.693Z,97691.52
2017-11-19T01:37:36.981Z,97677.63
2017-11-19T01:40:05.286Z,97689.40
2017-11-19T01:42:33.576Z,97693.67
2017-11-19T01:45:01.871Z,97698.20
2017-11-19T01:47:30.162Z,97698.67
2017-11-19T01:49:58.446Z,97699.36
2017-11-19T01:52:27.308Z,97699.70
2017-11-19T01:54:55.586Z,97685.77
2017-11-19T01:57:23.880Z,97677.66
2017-11-19T01:59:52.162Z,97687.71
2017-11-19T02:02:33.652Z,97696.73
2017-11-19T02:05:01.943Z,97693.34
2017-11-19T02:07:30.230Z,97683.11
2017-11-19T02:09:58.517Z,97682.68
2017-11-19T02:12:27.566Z,97677.61
2017-11-19T02:14:55.860Z,97688.56
2017-11-19T02:17:24.143Z,97687.94
2017-11-19T02:19:52.429Z,97689.80
2017-11-19T02:22:20.750Z,97700.36
2017-11-19T02:24:49.069Z,97705.63
2017-11-19T02:27:17.346Z,97697.55
2017-11-19T02:29:45.643Z,97700.92
2017-11-19T02:32:13.959Z,97697.94
2017-11-19T02:34:42.914Z,97689.20
2017-11-19T02:37:11.194Z,97692.11
2017-11-19T02:39:40.246Z,97683.34
2017-11-19T02:42:08.535Z,97680.06
2017-11-19T02:44:36.820Z,97673.73
2017-11-19T02:47:05.118Z,97673.67
2017-11-19T02:49:34.165Z,97676.47
2017-11-19T02:52:02.471Z,97673.16
2017-11-19T02:54:30.763Z,97674.33
2017-11-19T02:56:59.815Z,97670.20
2017-11-19T02:59:28.111Z,97681.71
2017-11-19T03:01:56.405Z,97684.14
2017-11-19T03:04:24.693Z,97694.52
2017-11-19T03:06:53.751Z,97693.81
2017-11-19T03:09:22.030Z,97688.06
2017-11-19T03:11:50.317Z,97684.66
2017-11-19T03:14:18.618Z,97688.95
2017-11-19T03:16:46.901Z,97693.97
2017-11-19T03:19:15.207Z,97690.64
2017-11-19T03:21:43.518Z,97713.94
2017-11-19T03:24:11.810Z,97694.33
2017-11-19T03:26:40.114Z,97694.45
2017-11-19T03:29:08.399Z,97695.55
2017-11-19T03:31:36.686Z,97700.87
2017-11-19T03:34:04.976Z,97703.98
2017-11-19T03:36:33.269Z,97702.38
2017-11-19T03:39:01.586Z,97701.95
2017-11-19T03:41:30.634Z,97701.55
2017-11-19T03:43:58.922Z,97697.78
2017-11-19T03:46:27.246Z,97709.14
2017-11-19T03:48:55.529Z,97706.00
2017-11-19T03:51:23.831Z,97702.56
2017-11-19T03:53:52.140Z,97706.79
2017-11-19T03:56:20.438Z,97703.58
2017-11-19T03:58:48.733Z,97707.44
2017-11-19T04:01:17.240Z,97711.29
2017-11-19T04:03:45.531Z,97705.58
2017-11-19T04:06:13.806Z,97706.80
2017-11-19T04:08:42.571Z,97706.69
2017-11-19T04:11:10.870Z,97697.30
2017-11-19T04:13:39.158Z,97691.84
2017-11-19T04:16:07.418Z,97687.56
2017-11-19T04:18:35.711Z,97685.70
2017-11-19T04:21:04.017Z,97690.08
2017-11-19T04:23:33.081Z,97686.28
2017-11-19T04:26:01.376Z,97692.90
2017-11-19T04:28:30.439Z,97692.37
2017-11-19T04:30:58.729Z,97695.34
2017-11-19T04:33:27.022Z,97684.47
2017-11-19T04:35:55.309Z,97676.86
2017-11-19T04:38:23.626Z,97683.83
2017-11-19T04:40:51.919Z,97693.00
2017-11-19T04:43:20.210Z,97698.27
2017-11-19T04:45:48.542Z,97690.55
2017-11-19T04:48:16.876Z,97683.52
2017-11-19T04:50:45.176Z,97688.84
2017-11-19T04:53:14.224Z,97689.05
2017-11-19T04:55:42.514Z,97697.22
2017-11-19T04:58:10.816Z,97698.69
2017-11-19T05:00:39.111Z,97698.28
2017-11-19T05:03:07.397Z,97702.69
2017-11-19T05:05:35.702Z,97707.84
2017-11-19T05:08:04.026Z,97714.57
2017-11-19T05:10:32.534Z,97716.48
2017-11-19T05:13:00.837Z,97706.84
2017-11-19T05:15:30.225Z,97702.77
2017-11-19T05:17:58.510Z,97697.14
2017-11-19T05:20:26.794Z,97703.12
2017-11-19T05:22:55.117Z,97709.33
2017-11-19T05:25:23.420Z,97712.37
2017-11-19T05:27:51.702Z,97706.52
2017-11-19T05:30:19.985Z,97709.97
2017-11-19T05:32:48.288Z,97710.20
2017-11-19T05:35:16.600Z,97713.87
2017-11-19T05:37:44.894Z,97697.47
2017-11-19T05:40:13.183Z,97716.89
2017-11-19T05:42:41.465Z,97713.27
2017-11-19T05:45:09.747Z,97719.78
2017-11-19T05:47:38.030Z,97733.14
2017-11-19T05:50:06.327Z,97724.53
2017-11-19T05:52:35.036Z,97718.58
2017-11-19T05:55:04.097Z,97724.27
2017-11-19T05:57:32.385Z,97722.64
2017-11-19T06:00:00.661Z,97727.11
2017-11-19T06:02:28.964Z,97724.09
2017-11-19T06:04:57.251Z,97721.78
2017-11-19T06:07:25.540Z,97731.69
2017-11-19T06:09:53.821Z,97731.45
2017-11-19T06:12:22.123Z,97731.10
2017-11-19T06:14:50.411Z,97729.99
2017-11-19T06:17:18.676Z,97737.10
2017-11-19T06:19:46.968Z,97741.62
2017-11-19T06:22:15.258Z,97741.36
2017-11-19T06:24:43.547Z,97744.97
2017-11-19T06:27:12.599Z,97741.87
2017-11-19T06:29:40.912Z,97750.18
2017-11-19T06:32:10.000Z,97750.77
2017-11-19T06:34:38.263Z,97753.67
2017-11-19T06:37:06.554Z,97752.11
2017-11-19T06:39:34.846Z,97744.37
2017-11-19T06:42:03.151Z,97752.02
2017-11-19T06:44:31.438Z,97755.54
2017-11-19T06:46:59.735Z,97758.29
2017-11-19T06:49:28.038Z,97756.56
2017-11-19T06:51:57.542Z,97750.77
2017-11-19T06:54:26.610Z,97759.53
2017-11-19T06:56:54.901Z,97755.89
2017-11-19T06:59:23.198Z,97753.91
2017-11-19T07:01:51.492Z,97756.12
2017-11-19T07:04:19.791Z,97749.17
2017-11-19T07:06:49.162Z,97762.48
2017-11-19T07:09:17.461Z,97758.89
2017-11-19T07:11:45.771Z,97758.67
2017-11-19T07:14:14.059Z,97770.19
2017-11-19T07:16:43.431Z,97764.27
2017-11-19T07:19:11.714Z,97775.32
2017-11-19T07:21:40.011Z,97775.80
2017-11-19T07:24:08.308Z,97788.33
2017-11-19T07:26:37.374Z,97789.86
2017-11-19T07:29:05.703Z,97787.33
2017-11-19T07:31:34.026Z,97784.42
2017-11-19T07:34:02.914Z,97787.16
2017-11-19T07:36:31.214Z,97794.91
2017-11-19T07:38:59.535Z,97788.94
2017-11-19T07:41:27.851Z,97789.55
2017-11-19T07:43:56.142Z,97785.47
2017-11-19T07:46:24.439Z,97785.61
2017-11-19T07:48:52.736Z,97784.77
2017-11-19T07:51:21.033Z,97786.64
2017-11-19T07:53:49.329Z,97791.02
2017-11-19T07:56:17.617Z,97780.48
2017-11-19T07:58:45.910Z,97772.06
2017-11-19T08:01:14.961Z,97771.23
2017-11-19T08:03:43.250Z,97774.42
2017-11-19T08:06:11.562Z,97769.52
2017-11-19T08:08:39.854Z,97778.91
2017-11-19T08:11:08.156Z,97773.79
2017-11-19T08:13:36.450Z,97772.60
2017-11-19T08:16:04.746Z,97781.14
2017-11-19T08:18:33.975Z,97785.70
2017-11-19T08:21:02.256Z,97777.48
2017-11-19T08:23:31.305Z,97780.72
2017-11-19T08:25:59.590Z,97789.80
2017-11-19T08:28:27.883Z,97782.22
2017-11-19T08:30:56.167Z,97793.03
2017-11-19T08:33:24.454Z,97789.98
2017-11-19T08:35:53.511Z,97778.42
2017-11-19T08:38:21.803Z,97781.66
2017-11-19T08:40:50.099Z,97787.16
2017-11-19T08:43:18.411Z,97787.86
2017-11-19T08:45:46.708Z,97788.52
2017-11-19T08:48:15.032Z,97784.48
2017-11-19T08:50:44.140Z,97790.72
2017-11-19T08:53:12.453Z,97793.84
2017-11-19T08:55:40.736Z,97787.50
2017-11-19T08:58:09.023Z,97798.05
2017-11-19T09:00:37.307Z,97789.66
2017-11-19T09:03:05.614Z,97791.86
2017-11-19T09:05:33.895Z,97789.39
2017-11-19T09:08:02.180Z,97793.20
2017-11-19T09:10:30.521Z,97795.47
2017-11-19T09:12:58.871Z,97792.58
2017-11-19T09:15:27.147Z,97794.62
2017-11-19T09:17:55.467Z,97795.26
2017-11-19T09:20:23.766Z,97800.08
2017-11-19T09:22:52.056Z,97799.33
2017-11-19T09:25:20.366Z,97805.66
2017-11-19T09:27:48.738Z,97802.47
2017-11-19T09:30:17.039Z,97795.73
2017-11-19T09:32:47.350Z,97806.03
2017-11-19T09:35:15.666Z,97807.28
2017-11-19T09:37:43.957Z,97803.53
2017-11-19T09:40:12.247Z,97809.95
2017-11-19T09:42:40.542Z,97811.13
2017-11-19T09:45:08.843Z,97816.77
2017-11-19T09:47:37.125Z,97827.43
2017-11-19T09:50:05.409Z,97817.54
2017-11-19T09:52:33.739Z,97820.38
2017-11-19T09:55:02.031Z,97819.53
2017-11-19T09:57:30.333Z,97820.73
2017-11-19T09:59:58.638Z,97814.87
2017-11-19T10:02:26.909Z,97815.27
2017-11-19T10:04:55.181Z,97817.49
2017-11-19T10:07:23.459Z,97811.50
2017-11-19T10:09:51.752Z,97826.75
2017-11-19T10:12:20.047Z,97815.02
2017-11-19T10:14:48.334Z,97816.00
2017-11-19T10:17:16.618Z,97819.19
2017-11-19T10:19:45.933Z,97822.60
2017-11-19T10:22:15.415Z,97814.63
2017-11-19T10:24:43.695Z,97818.10
2017-11-19T10:27:12.002Z,97828.47
2017-11-19T10:29:41.097Z,97816.88
2017-11-19T10:32:09.397Z,97821.40
2017-11-19T10:34:38.610Z,97810.23
2017-11-19T10:37:06.890Z,97814.67
2017-11-19T10:39:35.205Z,97811.77
2017-11-19T10:42:03.507Z,97812.98
2017-11-19T10:44:32.582Z,97810.97
2017-11-19T10:47:01.544Z,97809.30
2017-11-19T10:49:29.838Z,97807.05
2017-11-19T10:51:58.204Z,97816.77
2017-11-19T10:54:27.242Z,97825.06
2017-11-19T10:56:55.562Z,97806.37
2017-11-19T10:59:23.845Z,97818.36
2017-11-19T11:01:52.127Z,97828.01
2017-11-19T11:04:20.458Z,97814.05
2017-11-19T11:06:48.769Z,97822.68
2017-11-19T11:09:17.092Z,97819.24
2017-11-19T11:11:45.388Z,97807.33
2017-11-19T11:14:13.706Z,97813.22
2017-11-19T11:16:42.931Z,97815.32
2017-11-19T11:19:11.234Z,97818.27
2017-11-19T11:21:39.528Z,97828.13
2017-11-19T11:24:07.819Z,97828.50
2017-11-19T11:26:36.131Z,97839.42
2017-11-19T11:29:04.440Z,97828.34
2017-11-19T11:31:33.486Z,97831.75
2017-11-19T11:34:02.258Z,97827.07
2017-11-19T11:36:30.551Z,97832.33
2017-11-19T11:38:58.838Z,97823.80
2017-11-19T11:41:27.151Z,97825.90
2017-11-19T11:43:55.465Z,97832.66
2017-11-19T11:46:23.759Z,97838.88
2017-11-19T11:48:52.085Z,97848.89
2017-11-19T11:51:20.380Z,97834.59
2017-11-19T11:53:48.670Z,97848.69
2017-11-19T11:56:16.973Z,97845.73
2017-11-19T11:58:45.266Z,97857.20
2017-11-19T12:01:13.566Z,97846.72
2017-11-19T12:03:41.867Z,97846.87
2017-11-19T12:06:10.150Z,97849.24
2017-11-19T12:08:38.486Z,97866.63
2017-11-19T12:11:06.829Z,97852.54
2017-11-19T12:13:35.132Z,97867.19
2017-11-19T12:16:03.425Z,97867.66
2017-11-19T12:18:32.486Z,97873.67
2017-11-19T12:21:00.809Z,97876.14
2017-11-19T12:23:29.999Z,97875.86
2017-11-19T12:25:58.330Z,97871.21
2017-11-19T12:28:26.626Z,97873.77
2017-11-19T12:30:54.933Z,97861.02
2017-11-19T12:33:23.214Z,97867.13
2017-11-19T12:35:51.511Z,97848.90
2017-11-19T12:38:19.828Z,97871.66
2017-11-19T12:40:55.767Z,97870.28
2017-11-19T12:43:24.103Z,97864.25
2017-11-19T12:45:52.403Z,97857.52
2017-11-19T12:48:20.694Z,97869.00
2017-11-19T12:50:48.982Z,97872.65
2017-11-19T12:53:17.267Z,97865.80
2017-11-19T12:55:45.557Z,97875.30
2017-11-19T12:58:13.854Z,97869.47
2017-11-19T13:00:42.178Z,97876.28
2017-11-19T13:03:10.464Z,97872.42
2017-11-19T13:05:38.747Z,97874.19
2017-11-19T13:08:07.066Z,97879.20
2017-11-19T13:10:36.135Z,97882.94
2017-11-19T13:13:04.427Z,97874.76
2017-11-19T13:15:33.496Z,97884.02
2017-11-19T13:18:01.850Z,97891.05
2017-11-19T13:20:30.177Z,97884.48
2017-11-19T13:22:59.547Z,97875.86
2017-11-19T13:25:27.812Z,97878.02
2017-11-19T13:27:56.146Z,97873.44
2017-11-19T13:30:24.515Z,97871.91
2017-11-19T13:32:52.946Z,97872.97
2017-11-19T13:35:21.471Z,97871.44
2017-11-19T13:37:49.808Z,97865.89
2017-11-19T13:40:18.186Z,97876.01
2017-11-19T13:42:46.509Z,97871.05
2017-11-19T13:45:14.811Z,97863.39
2017-11-19T13:47:43.137Z,97879.95
2017-11-19T13:50:11.503Z,97875.69
2017-11-19T13:52:39.872Z,97892.14
2017-11-19T13:55:08.188Z,97913.34
2017-11-19T13:57:37.389Z,97904.86
2017-11-19T14:00:05.696Z,97909.20
2017-11-19T14:02:34.346Z,97905.86
2017-11-19T14:05:02.671Z,97916.16
2017-11-19T14:07:30.987Z,97916.62
2017-11-19T14:09:59.410Z,97923.02
2017-11-19T14:12:27.754Z,97919.13
2017-11-19T14:14:56.193Z,97893.27
2017-11-19T14:17:24.564Z,97914.83
2017-11-19T14:19:52.833Z,97908.52
2017-11-19T14:22:21.107Z,97925.79
2017-11-19T14:24:49.428Z,97922.28
2017-11-19T14:27:17.740Z,97927.16
2017-11-19T14:29:46.059Z,97922.66
2017-11-19T14:32:14.399Z,97933.16
2017-11-19T14:34:42.752Z,97931.59
2017-11-19T14:37:11.838Z,97933.50
2017-11-19T14:39:40.139Z,97941.08
2017-11-19T14:42:08.525Z,97954.05
2017-11-19T14:44:36.862Z,97964.92
2017-11-19T14:47:05.966Z,97957.47
2017-11-19T14:49:34.289Z,97960.32
2017-11-19T14:52:02.782Z,97962.27
2017-11-19T14:54:31.966Z,97971.84
2017-11-19T14:57:00.693Z,97972.97
2017-11-19T14:59:29.230Z,97969.41
2017-11-19T15:01:57.974Z,97978.05
2017-11-19T15:04:26.471Z,97973.69
2017-11-19T15:06:54.988Z,97978.81
2017-11-19T15:09:23.688Z,97973.20
2017-11-19T15:11:52.149Z,97973.02
2017-11-19T15:14:20.576Z,97958.50
2017-11-19T15:16:50.055Z,97949.55
2017-11-19T15:19:19.329Z,97956.19
2017-11-19T15:21:47.913Z,97953.95
2017-11-19T15:24:16.642Z,97956.84
2017-11-19T15:26:45.141Z,97956.40
2017-11-19T15:29:15.150Z,97950.35
2017-11-19T15:31:43.830Z,97955.17
2017-11-19T15:34:12.392Z,97954.28
2017-11-19T15:36:41.370Z,97964.22
2017-11-19T15:39:09.844Z,97970.66
2017-11-19T15:41:38.405Z,97968.42
2017-11-19T15:44:06.862Z,97976.47
2017-11-19T15:46:35.229Z,97987.59
2017-11-19T15:49:03.968Z,97978.20
2017-11-19T15:51:33.973Z,97976.88
2017-11-19T15:54:03.049Z,97984.04
2017-11-19T15:56:32.185Z,97972.25
2017-11-19T15:59:00.730Z,97985.22
2017-11-19T16:01:29.320Z,97994.25
2017-11-19T16:03:58.016Z,97980.39
2017-11-19T16:06:26.372Z,97978.78
2017-11-19T16:08:55.097Z,97987.42
2017-11-19T16:11:24.817Z,97993.36
2017-11-19T16:13:53.295Z,97990.47
2017-11-19T16:16:22.096Z,98002.43
2017-11-19T16:18:50.872Z,98003.70
2017-11-19T16:21:19.760Z,98002.65
2017-11-19T16:23:48.377Z,98000.34
2017-11-19T16:26:17.800Z,98008.56
2017-11-19T16:28:46.745Z,98006.23
2017-11-19T16:31:15.400Z,98008.70
2017-11-19T16:33:43.907Z,98005.18
2017-11-19T16:36:12.249Z,97998.98
2017-11-19T16:38:40.815Z,97990.13
2017-11-19T16:41:10.552Z,97991.11
2017-11-19T16:43:39.640Z,97997.74
2017-11-19T16:46:09.103Z,97997.19
2017-11-19T16:48:37.769Z,98005.13
2017-11-19T16:51:06.572Z,98011.04
2017-11-19T16:53:35.797Z,98005.88
2017-11-19T16:56:04.494Z,98000.80
2017-11-19T16:58:33.018Z,98005.90
2017-11-19T17:01:01.603Z,97997.14
2017-11-19T17:03:30.979Z,97995.50
2017-11-19T17:05:59.740Z,97999.89
2017-11-19T17:08:28.933Z,98005.17
2017-11-19T17:10:58.236Z,98013.98
2017-11-19T17:13:27.712Z,98029.53
2017-11-19T17:15:57.343Z,98043.77
2017-11-19T17:18:26.507Z,98039.16
2017-11-19T17:20:55.755Z,98031.05
2017-11-19T17:23:25.120Z,98037.14
2017-11-19T17:25:54.687Z,98041.63
2017-11-19T17:28:24.424Z,98041.83
2017-11-19T17:30:54.108Z,98042.16
2017-11-19T17:33:23.951Z,98045.08
2017-11-19T17:35:59.018Z,98048.99
2017-11-19T17:38:28.701Z,98053.94
2017-11-19T17:40:58.194Z,98054.66
2017-11-19T17:43:27.602Z,98053.88
2017-11-19T17:45:57.127Z,98061.84
2017-11-19T17:48:27.116Z,98063.59
2017-11-19T17:50:56.344Z,98064.27
2017-11-19T17:53:25.957Z,98068.72
2017-11-19T17:55:55.565Z,98079.17
2017-11-19T17:58:24.627Z,98070.16
2017-11-19T18:00:53.913Z,98063.34
2017-11-19T18:03:22.918Z,98063.88
2017-11-19T18:05:52.204Z,98063.98
2017-11-19T18:08:21.662Z,98061.52
2017-11-19T18:10:50.989Z,98073.20
2017-11-19T18:13:20.520Z,98075.31
2017-11-19T18:15:50.269Z,98072.33
2017-11-19T18:18:20.026Z,98077.88
2017-11-19T18:20:50.443Z,98086.44
2017-11-19T18:23:20.270Z,98089.46
2017-11-19T18:25:49.973Z,98090.14
2017-11-19T18:28:19.733Z,98093.34
2017-11-19T18:30:49.717Z,98090.30
2017-11-19T18:33:20.527Z,98103.48
2017-11-19T18:35:50.346Z,98099.64
2017-11-19T18:38:20.913Z,98095.31
2017-11-19T18:40:50.619Z,98100.83
2017-11-19T18:43:20.531Z,98102.70
2017-11-19T18:45:50.491Z,98102.16
2017-11-19T18:48:20.383Z,98100.02
2017-11-19T18:50:50.342Z,98090.17
2017-11-19T18:53:20.241Z,98103.90
2017-11-19T18:55:50.093Z,98114.06
2017-11-19T18:58:19.922Z,98117.94
2017-11-19T19:00:49.800Z,98125.05
2017-11-19T19:03:19.572Z,98117.16
2017-11-19T19:05:49.487Z,98122.67
2017-11-19T19:08:19.277Z,98125.63
2017-11-19T19:10:49.091Z,98128.42
2017-11-19T19:13:18.958Z,98127.86
2017-11-19T19:15:48.806Z,98133.25
2017-11-19T19:18:20.320Z,98144.45
2017-11-19T19:20:50.709Z,98141.90
2017-11-19T19:23:20.742Z,98138.27
2017-11-19T19:25:50.615Z,98142.86
2017-11-19T19:28:20.494Z,98143.61
2017-11-19T19:30:50.436Z,98154.32
2017-11-19T19:33:20.340Z,98151.78
2017-11-19T19:35:50.228Z,98156.54
2017-11-19T19:38:20.209Z,98155.83
2017-11-19T19:40:50.707Z,98160.23
2017-11-19T19:43:20.696Z,98159.75
2017-11-19T19:45:50.599Z,98162.98
2017-11-19T19:48:21.257Z,98168.14
2017-11-19T19:50:51.925Z,98173.06
2017-11-19T19:53:22.645Z,98171.55
2017-11-19T19:55:52.555Z,98173.42
2017-11-19T19:58:22.371Z,98165.91
2017-11-19T20:00:53.388Z,98169.32
2017-11-19T20:03:23.334Z,98178.14
2017-11-19T20:05:53.382Z,98191.95
2017-11-19T20:08:24.047Z,98192.94
2017-11-19T20:10:53.982Z,98192.19
2017-11-19T20:13:23.791Z,98184.50
2017-11-19T20:15:57.904Z,98206.35
2017-11-19T20:18:27.732Z,98208.63
2017-11-19T20:20:58.337Z,98211.38
2017-11-19T20:23:28.208Z,98212.28
2017-11-19T20:25:58.141Z,98207.77
2017-11-19T20:28:27.980Z,98212.23
2017-11-19T20:30:57.883Z,98216.11
2017-11-19T20:33:27.813Z,98222.22
2017-11-19T20:35:57.759Z,98223.25
2017-11-19T20:38:27.705Z,98230.16
2017-11-19T20:40:57.766Z,98235.19
2017-11-19T20:43:27.712Z,98230.67
2017-11-19T20:45:57.651Z,98236.72
2017-11-19T20:48:28.294Z,98245.58
2017-11-19T20:50:58.968Z,98255.45
2017-11-19T21:09:33.895Z,98242.84
2017-11-19T21:12:03.689Z,98246.94
2017-11-19T21:14:34.643Z,98243.52
2017-11-19T21:17:04.420Z,98249.83
2017-11-19T21:19:34.326Z,98245.43
2017-11-19T21:22:05.000Z,98248.10
2017-11-19T21:24:34.898Z,98247.30
2017-11-19T21:27:04.781Z,98248.17
2017-11-19T21:29:34.576Z,98251.78
2017-11-19T21:32:04.393Z,98245.20
2017-11-19T21:34:34.138Z,98253.44
2017-11-19T21:37:04.665Z,98250.42
2017-11-19T21:39:36.058Z,98250.29
2017-11-19T21:42:05.850Z,98244.67
2017-11-19T21:44:35.706Z,98247.02
2017-11-19T21:47:05.355Z,98247.73
2017-11-19T21:49:35.077Z,98250.00
2017-11-19T21:52:04.611Z,98255.71
2017-11-19T21:54:34.271Z,98258.16
2017-11-19T21:57:03.962Z,98249.04
2017-11-19T21:59:34.598Z,98256.89
2017-11-19T22:02:03.666Z,98260.81
2017-11-19T22:04:32.277Z,98267.49
2017-11-19T22:07:00.631Z,98269.56
2017-11-19T22:09:29.886Z,98270.45
2017-11-19T22:11:58.281Z,98265.59
2017-11-19T22:14:26.574Z,98273.06
2017-11-19T22:16:54.871Z,98269.79
2017-11-19T22:19:23.226Z,98268.66
2017-11-19T22:21:51.541Z,98267.17
2017-11-19T22:24:19.829Z,98263.14
2017-11-19T22:26:49.202Z,98245.98
2017-11-19T22:29:18.262Z,98258.94
2017-11-19T22:31:46.578Z,98258.30
2017-11-19T22:34:15.634Z,98272.47
2017-11-19T22:36:44.509Z,98269.55
2017-11-19T22:39:12.804Z,98264.81
2017-11-19T22:41:41.159Z,98269.78
2017-11-19T22:44:09.433Z,98262.65
2017-11-19T22:46:37.733Z,98271.20
2017-11-19T22:49:06.009Z,98272.14
2017-11-19T22:51:34.290Z,98280.75
2017-11-19T22:54:02.564Z,98282.50
2017-11-19T22:56:30.846Z,98276.27
2017-11-19T22:58:59.170Z,98277.03
2017-11-19T23:01:27.471Z,98273.05
2017-11-19T23:03:55.770Z,98267.69
2017-11-19T23:06:24.062Z,98265.72
2017-11-19T23:08:52.376Z,98261.33
2017-11-19T23:11:20.679Z,98253.89
2017-11-19T23:13:48.961Z,98255.25
2017-11-19T23:16:17.250Z,98269.23
2017-11-19T23:18:45.577Z,98270.61
2017-11-19T23:21:13.886Z,98277.66
2017-11-19T23:23:42.181Z,98275.53
2017-11-19T23:26:10.482Z,98273.88
2017-11-19T23:28:38.773Z,98276.39
2017-11-19T23:31:07.099Z,98277.55
2017-11-19T23:33:35.389Z,98283.83
2017-11-19T23:36:03.709Z,98282.48
2017-11-19T23:38:34.774Z,98280.05
2017-11-19T23:41:03.066Z,98274.16
2017-11-19T23:43:31.351Z,98275.21
2017-11-19T23:45:59.660Z,98282.43
2017-11-19T23:48:27.945Z,98284.61
2017-11-19T23:50:56.238Z,98287.42
2017-11-19T23:53:24.621Z,98284.66
2017-11-19T23:55:52.915Z,98275.53
2017-11-19T23:58:21.195Z,98274.06
